9W213 VOML-VABB
Flight info
| Callsign | 9W213 |
|---|---|
| Flight time | N/A |
| Altitude | 34000 |
| Route | DCT KANTI DCT KADMI DCT NOBOD DCT PABLU DCT EMVUK DCT GUTNA DCT OKEGO DCT MB397 DCT |
| Aircraft | B739/M-V/N |
Departure
| Time | 2026-04-29 16:42 |
|---|---|
| Airport | Mangaluru International Airport (VOML) |
Arrival
| Time | N/A |
|---|---|
| Airport | Chhatrapati Shivaji Maharaj International Airport (VABB) |
| Time | Latitude | Longitude | Altitude | Speed | Heading |
|---|---|---|---|---|---|
| 2026-04-29 16:08 | 12.94862 | 74.87247 | 345 ft | 0 kts | 325° |
| 2026-04-29 16:31 | 12.94852 | 74.87254 | 345 ft | 2 kts | 325° |
| 2026-04-29 16:31 | 12.94838 | 74.87263 | 345 ft | 2 kts | 325° |
| 2026-04-29 16:32 | 12.94825 | 74.87273 | 345 ft | 2 kts | 325° |
| 2026-04-29 16:32 | 12.94811 | 74.87282 | 345 ft | 2 kts | 325° |
| 2026-04-29 16:32 | 12.94798 | 74.87292 | 345 ft | 2 kts | 325° |
| 2026-04-29 16:32 | 12.94788 | 74.87299 | 345 ft | 2 kts | 325° |
| 2026-04-29 16:33 | 12.94787 | 74.87299 | 345 ft | 0 kts | 325° |
| 2026-04-29 16:36 | 12.94799 | 74.87298 | 345 ft | 2 kts | 16° |
| 2026-04-29 16:36 | 12.94845 | 74.87340 | 345 ft | 16 kts | 55° |
| 2026-04-29 16:37 | 12.94916 | 74.87445 | 345 ft | 16 kts | 58° |
| 2026-04-29 16:37 | 12.94891 | 74.87546 | 345 ft | 18 kts | 147° |
| 2026-04-29 16:37 | 12.94793 | 74.87613 | 345 ft | 14 kts | 133° |
| 2026-04-29 16:37 | 12.94792 | 74.87674 | 345 ft | 14 kts | 53° |
| 2026-04-29 16:38 | 12.94885 | 74.87818 | 345 ft | 23 kts | 58° |
| 2026-04-29 16:38 | 12.94967 | 74.87957 | 345 ft | 24 kts | 59° |
| 2026-04-29 16:38 | 12.95064 | 74.88118 | 345 ft | 29 kts | 58° |
| 2026-04-29 16:38 | 12.95177 | 74.88303 | 345 ft | 33 kts | 58° |
| 2026-04-29 16:39 | 12.95305 | 74.88511 | 345 ft | 36 kts | 58° |
| 2026-04-29 16:39 | 12.95435 | 74.88731 | 345 ft | 38 kts | 54° |
| 2026-04-29 16:39 | 12.95577 | 74.88963 | 345 ft | 39 kts | 58° |
| 2026-04-29 16:39 | 12.95725 | 74.89203 | 345 ft | 40 kts | 57° |
| 2026-04-29 16:40 | 12.95876 | 74.89437 | 345 ft | 32 kts | 56° |
| 2026-04-29 16:40 | 12.95995 | 74.89564 | 345 ft | 23 kts | 68° |
| 2026-04-29 16:40 | 12.95920 | 74.89566 | 345 ft | 13 kts | 281° |
| 2026-04-29 16:40 | 12.95907 | 74.89506 | 345 ft | 2 kts | 236° |
| 2026-04-29 16:41 | 12.95900 | 74.89495 | 345 ft | 2 kts | 237° |
| 2026-04-29 16:41 | 12.95894 | 74.89485 | 345 ft | 2 kts | 237° |
| 2026-04-29 16:41 | 12.95778 | 74.89303 | 345 ft | 67 kts | 237° |
| 2026-04-29 16:41 | 12.95402 | 74.88679 | 345 ft | 134 kts | 237° |
| 2026-04-29 16:42 | 12.94807 | 74.87710 | 486 ft | 180 kts | 238° |
| 2026-04-29 16:42 | 12.94371 | 74.86446 | 1033 ft | 205 kts | 264° |
| 2026-04-29 16:42 | 12.94454 | 74.84950 | 2097 ft | 206 kts | 278° |
| 2026-04-29 16:42 | 12.94810 | 74.83580 | 3152 ft | 200 kts | 290° |
| 2026-04-29 16:43 | 12.95420 | 74.82326 | 3981 ft | 196 kts | 301° |
| 2026-04-29 16:43 | 12.96157 | 74.81221 | 5123 ft | 172 kts | 306° |
| 2026-04-29 16:43 | 12.97006 | 74.80233 | 5427 ft | 204 kts | 317° |
| 2026-04-29 16:43 | 12.98147 | 74.79294 | 6099 ft | 208 kts | 324° |
| 2026-04-29 16:44 | 12.99263 | 74.78517 | 7368 ft | 177 kts | 329° |
| 2026-04-29 16:44 | 13.00370 | 74.77813 | 7837 ft | 197 kts | 331° |
| 2026-04-29 16:44 | 13.01582 | 74.77069 | 8365 ft | 207 kts | 332° |
| 2026-04-29 16:44 | 13.02798 | 74.76321 | 9245 ft | 197 kts | 333° |
| 2026-04-29 16:45 | 13.03980 | 74.75630 | 9790 ft | 205 kts | 341° |
| 2026-04-29 16:45 | 13.05453 | 74.75314 | 9973 ft | 227 kts | 358° |
| 2026-04-29 16:45 | 13.07080 | 74.75218 | 10268 ft | 250 kts | 1° |
| 2026-04-29 16:45 | 13.08949 | 74.75119 | 10548 ft | 276 kts | 359° |
| 2026-04-29 16:46 | 13.10894 | 74.74950 | 10799 ft | 292 kts | 357° |
| 2026-04-29 16:46 | 13.12979 | 74.74698 | 11117 ft | 313 kts | 354° |
| 2026-04-29 16:46 | 13.15207 | 74.74317 | 11454 ft | 334 kts | 351° |
| 2026-04-29 16:46 | 13.17541 | 74.73761 | 11733 ft | 354 kts | 347° |
| 2026-04-29 16:47 | 13.19970 | 74.73029 | 12069 ft | 370 kts | 344° |
| 2026-04-29 16:47 | 13.22432 | 74.72161 | 12680 ft | 376 kts | 342° |
| 2026-04-29 16:47 | 13.24889 | 74.71204 | 13375 ft | 380 kts | 340° |
| 2026-04-29 16:47 | 13.27350 | 74.70197 | 14030 ft | 383 kts | 339° |
| 2026-04-29 16:48 | 13.29838 | 74.69168 | 14662 ft | 386 kts | 339° |
| 2026-04-29 16:48 | 13.32335 | 74.68126 | 15267 ft | 389 kts | 339° |
| 2026-04-29 16:48 | 13.34853 | 74.67069 | 15852 ft | 392 kts | 339° |
| 2026-04-29 16:48 | 13.37402 | 74.65995 | 16313 ft | 399 kts | 339° |
| 2026-04-29 16:49 | 13.39990 | 74.64901 | 16798 ft | 404 kts | 338° |
| 2026-04-29 16:49 | 13.42584 | 74.63803 | 17399 ft | 404 kts | 338° |
| 2026-04-29 16:49 | 13.45196 | 74.62696 | 17747 ft | 409 kts | 338° |
| 2026-04-29 16:49 | 13.47831 | 74.61578 | 17868 ft | 408 kts | 338° |
| 2026-04-29 16:50 | 13.50448 | 74.60467 | 17875 ft | 407 kts | 338° |
| 2026-04-29 16:50 | 13.53068 | 74.59354 | 17876 ft | 406 kts | 338° |
| 2026-04-29 16:50 | 13.55672 | 74.58247 | 17876 ft | 408 kts | 338° |
| 2026-04-29 16:50 | 13.58278 | 74.57139 | 17876 ft | 409 kts | 338° |
| 2026-04-29 16:51 | 13.60963 | 74.55997 | 18094 ft | 414 kts | 338° |
| 2026-04-29 16:51 | 13.63613 | 74.54870 | 18750 ft | 412 kts | 338° |
| 2026-04-29 16:51 | 13.66227 | 74.53757 | 19312 ft | 413 kts | 338° |
| 2026-04-29 16:51 | 13.68931 | 74.52606 | 19695 ft | 419 kts | 338° |
| 2026-04-29 16:52 | 13.71615 | 74.51464 | 19946 ft | 427 kts | 338° |
| 2026-04-29 16:52 | 13.74410 | 74.50274 | 20324 ft | 432 kts | 338° |
| 2026-04-29 16:52 | 13.77149 | 74.49107 | 20728 ft | 435 kts | 337° |
| 2026-04-29 16:52 | 13.79967 | 74.47906 | 21161 ft | 438 kts | 337° |
| 2026-04-29 16:53 | 13.82753 | 74.46719 | 22024 ft | 427 kts | 336° |
| 2026-04-29 16:53 | 13.85493 | 74.45551 | 22475 ft | 429 kts | 336° |
| 2026-04-29 16:53 | 13.88286 | 74.44360 | 22751 ft | 435 kts | 336° |
| 2026-04-29 16:53 | 13.91081 | 74.43167 | 23239 ft | 434 kts | 336° |
| 2026-04-29 16:54 | 13.93876 | 74.41977 | 23605 ft | 436 kts | 336° |
| 2026-04-29 16:54 | 13.96686 | 74.40780 | 23905 ft | 440 kts | 335° |
| 2026-04-29 16:54 | 13.99524 | 74.39569 | 24111 ft | 446 kts | 335° |
| 2026-04-29 16:54 | 14.02415 | 74.38334 | 24461 ft | 448 kts | 335° |
| 2026-04-29 16:55 | 14.05296 | 74.37103 | 24830 ft | 449 kts | 335° |
| 2026-04-29 16:55 | 14.08171 | 74.35874 | 25348 ft | 445 kts | 335° |
| 2026-04-29 16:55 | 14.11031 | 74.34651 | 25725 ft | 446 kts | 335° |
| 2026-04-29 16:55 | 14.13861 | 74.33440 | 25966 ft | 449 kts | 335° |
| 2026-04-29 16:56 | 14.16804 | 74.32181 | 26236 ft | 451 kts | 335° |
| 2026-04-29 16:56 | 14.19708 | 74.30939 | 26526 ft | 453 kts | 335° |
| 2026-04-29 16:56 | 14.22618 | 74.29693 | 26811 ft | 454 kts | 335° |
| 2026-04-29 16:56 | 14.25522 | 74.28497 | 27101 ft | 455 kts | 337° |
| 2026-04-29 16:57 | 14.28502 | 74.27362 | 27381 ft | 457 kts | 337° |
| 2026-04-29 16:57 | 14.31484 | 74.26229 | 27630 ft | 458 kts | 337° |
| 2026-04-29 16:57 | 14.34476 | 74.25082 | 27819 ft | 461 kts | 337° |
| 2026-04-29 16:57 | 14.37486 | 74.23918 | 28048 ft | 462 kts | 336° |
| 2026-04-29 16:58 | 14.40528 | 74.22737 | 28321 ft | 462 kts | 336° |
| 2026-04-29 16:58 | 14.43545 | 74.21563 | 28564 ft | 463 kts | 336° |
| 2026-04-29 16:58 | 14.46560 | 74.20390 | 28864 ft | 462 kts | 336° |
| 2026-04-29 16:58 | 14.49562 | 74.19220 | 29209 ft | 460 kts | 336° |
| 2026-04-29 16:59 | 14.52535 | 74.18061 | 29610 ft | 457 kts | 336° |
| 2026-04-29 16:59 | 14.55493 | 74.16909 | 29991 ft | 454 kts | 336° |
| 2026-04-29 16:59 | 14.58423 | 74.15761 | 30267 ft | 453 kts | 335° |
| 2026-04-29 16:59 | 14.61289 | 74.14429 | 30450 ft | 453 kts | 329° |
| 2026-04-29 17:00 | 14.64040 | 74.12854 | 30714 ft | 451 kts | 326° |
| 2026-04-29 17:00 | 14.66707 | 74.11176 | 31033 ft | 448 kts | 325° |
| 2026-04-29 17:00 | 14.69352 | 74.09481 | 31400 ft | 445 kts | 325° |
| 2026-04-29 17:00 | 14.71991 | 74.07798 | 31740 ft | 443 kts | 325° |
| 2026-04-29 17:01 | 14.74613 | 74.06131 | 31954 ft | 444 kts | 325° |
| 2026-04-29 17:01 | 14.77241 | 74.04462 | 32115 ft | 446 kts | 325° |
| 2026-04-29 17:01 | 14.79903 | 74.02772 | 32400 ft | 445 kts | 325° |
| 2026-04-29 17:01 | 14.82528 | 74.01106 | 32682 ft | 443 kts | 325° |
| 2026-04-29 17:02 | 14.85152 | 73.99440 | 32915 ft | 443 kts | 325° |
| 2026-04-29 17:02 | 14.87789 | 73.97767 | 33143 ft | 443 kts | 325° |
| 2026-04-29 17:02 | 14.90419 | 73.96102 | 33393 ft | 443 kts | 326° |
| 2026-04-29 17:02 | 14.93114 | 73.94572 | 33628 ft | 444 kts | 329° |
| 2026-04-29 17:03 | 14.95890 | 73.93182 | 33856 ft | 445 kts | 331° |
| 2026-04-29 17:03 | 14.98698 | 73.91849 | 33881 ft | 447 kts | 332° |
| 2026-04-29 17:03 | 15.04313 | 73.89137 | 33881 ft | 445 kts | 331° |
| 2026-04-29 17:04 | 15.09910 | 73.86386 | 33880 ft | 444 kts | 331° |
| 2026-04-29 17:04 | 15.15486 | 73.83634 | 33891 ft | 443 kts | 331° |
| 2026-04-29 17:05 | 15.21018 | 73.80901 | 33906 ft | 441 kts | 332° |
| 2026-04-29 17:05 | 15.26575 | 73.78156 | 33915 ft | 441 kts | 331° |
| 2026-04-29 17:06 | 15.32084 | 73.75358 | 33918 ft | 441 kts | 330° |
| 2026-04-29 17:06 | 15.37557 | 73.72515 | 33918 ft | 441 kts | 330° |
| 2026-04-29 17:07 | 15.42114 | 73.70151 | 33919 ft | 440 kts | 330° |
| 2026-04-29 17:07 | 15.48516 | 73.66829 | 33917 ft | 440 kts | 330° |
| 2026-04-29 17:08 | 15.53968 | 73.64001 | 33912 ft | 441 kts | 330° |
| 2026-04-29 17:08 | 15.59477 | 73.61191 | 33911 ft | 441 kts | 331° |
| 2026-04-29 17:09 | 15.64084 | 73.58890 | 33909 ft | 441 kts | 331° |
| 2026-04-29 17:09 | 15.70545 | 73.55651 | 33904 ft | 441 kts | 331° |
| 2026-04-29 17:10 | 15.75117 | 73.53355 | 33902 ft | 441 kts | 331° |
| 2026-04-29 17:10 | 15.76058 | 73.52882 | 33902 ft | 441 kts | 331° |
| 2026-04-29 17:12 | 15.97945 | 73.41882 | 33908 ft | 442 kts | 331° |
| 2026-04-29 17:12 | 16.02553 | 73.39562 | 33913 ft | 441 kts | 331° |
| 2026-04-29 17:13 | 16.08970 | 73.36335 | 33920 ft | 441 kts | 331° |
| 2026-04-29 17:13 | 16.14501 | 73.33544 | 33924 ft | 441 kts | 331° |
| 2026-04-29 17:14 | 16.20016 | 73.30758 | 33927 ft | 441 kts | 331° |
| 2026-04-29 17:14 | 16.25539 | 73.27967 | 33927 ft | 441 kts | 331° |
| 2026-04-29 17:15 | 16.31055 | 73.25180 | 33926 ft | 441 kts | 331° |
| 2026-04-29 17:15 | 16.36500 | 73.22270 | 33925 ft | 440 kts | 328° |
| 2026-04-29 17:16 | 16.41901 | 73.19230 | 33924 ft | 440 kts | 329° |
| 2026-04-29 17:16 | 16.47296 | 73.16217 | 33925 ft | 440 kts | 329° |
| 2026-04-29 17:17 | 16.52701 | 73.13205 | 33925 ft | 440 kts | 329° |
| 2026-04-29 17:17 | 16.58106 | 73.10194 | 33915 ft | 440 kts | 329° |
| 2026-04-29 17:18 | 16.63484 | 73.07203 | 33917 ft | 440 kts | 329° |
| 2026-04-29 17:18 | 16.68884 | 73.04203 | 33921 ft | 440 kts | 329° |
| 2026-04-29 17:19 | 16.74273 | 73.01202 | 33911 ft | 440 kts | 329° |
| 2026-04-29 17:19 | 16.79691 | 72.98182 | 33920 ft | 440 kts | 329° |
| 2026-04-29 17:20 | 16.85094 | 72.95175 | 33631 ft | 441 kts | 329° |
| 2026-04-29 17:20 | 16.87803 | 72.93664 | 33331 ft | 441 kts | 329° |
| 2026-04-29 17:20 | 16.89598 | 72.92661 | 33089 ft | 443 kts | 329° |
| 2026-04-29 17:21 | 16.93205 | 72.90645 | 32361 ft | 446 kts | 329° |
| 2026-04-29 17:21 | 16.95948 | 72.89111 | 31810 ft | 447 kts | 329° |
| 2026-04-29 17:21 | 16.97796 | 72.88077 | 31439 ft | 447 kts | 329° |
| 2026-04-29 17:21 | 17.00546 | 72.86538 | 30887 ft | 448 kts | 329° |
| 2026-04-29 17:22 | 17.03299 | 72.84997 | 30336 ft | 449 kts | 329° |
| 2026-04-29 17:22 | 17.06127 | 72.83597 | 29783 ft | 453 kts | 337° |
| 2026-04-29 17:22 | 17.09139 | 72.82812 | 29244 ft | 459 kts | 349° |
| 2026-04-29 17:22 | 17.12373 | 72.82686 | 28862 ft | 464 kts | 359° |
| 2026-04-29 17:23 | 17.15609 | 72.83031 | 28636 ft | 469 kts | 5° |
| 2026-04-29 17:23 | 17.18849 | 72.83593 | 28410 ft | 471 kts | 7° |
| 2026-04-29 17:23 | 17.22082 | 72.84227 | 28184 ft | 472 kts | 7° |
| 2026-04-29 17:23 | 17.25305 | 72.84844 | 27960 ft | 472 kts | 7° |
| 2026-04-29 17:24 | 17.28522 | 72.85446 | 27736 ft | 472 kts | 7° |
| 2026-04-29 17:24 | 17.31762 | 72.86042 | 27510 ft | 472 kts | 7° |
| 2026-04-29 17:24 | 17.34981 | 72.86630 | 27265 ft | 464 kts | 7° |
| 2026-04-29 17:24 | 17.38123 | 72.87199 | 27012 ft | 449 kts | 7° |
| 2026-04-29 17:25 | 17.41146 | 72.87746 | 26761 ft | 436 kts | 7° |
| 2026-04-29 17:25 | 17.44106 | 72.88278 | 26508 ft | 423 kts | 7° |
| 2026-04-29 17:25 | 17.46964 | 72.88791 | 26258 ft | 417 kts | 7° |
| 2026-04-29 17:25 | 17.49830 | 72.89306 | 26006 ft | 416 kts | 7° |
| 2026-04-29 17:26 | 17.52656 | 72.89813 | 25759 ft | 417 kts | 7° |
| 2026-04-29 17:26 | 17.55525 | 72.90329 | 25508 ft | 418 kts | 7° |
| 2026-04-29 17:26 | 17.58432 | 72.90852 | 25256 ft | 416 kts | 7° |
| 2026-04-29 17:26 | 17.61254 | 72.91359 | 25006 ft | 412 kts | 7° |
| 2026-04-29 17:27 | 17.64046 | 72.91861 | 24757 ft | 410 kts | 7° |
| 2026-04-29 17:27 | 17.66862 | 72.92368 | 24507 ft | 409 kts | 7° |
| 2026-04-29 17:27 | 17.69702 | 72.92879 | 24252 ft | 407 kts | 7° |
| 2026-04-29 17:27 | 17.72448 | 72.93374 | 24006 ft | 406 kts | 7° |
| 2026-04-29 17:28 | 17.75230 | 72.93875 | 23755 ft | 404 kts | 7° |
| 2026-04-29 17:28 | 17.77993 | 72.94373 | 23504 ft | 402 kts | 8° |
| 2026-04-29 17:28 | 17.80748 | 72.94869 | 23254 ft | 400 kts | 8° |
| 2026-04-29 17:28 | 17.83470 | 72.95392 | 23002 ft | 399 kts | 11° |
| 2026-04-29 17:29 | 17.86152 | 72.96210 | 22752 ft | 399 kts | 17° |
| 2026-04-29 17:29 | 17.88743 | 72.97170 | 22503 ft | 397 kts | 18° |
| 2026-04-29 17:29 | 17.91348 | 72.98174 | 22251 ft | 396 kts | 19° |
| 2026-04-29 17:29 | 17.93909 | 72.99165 | 22003 ft | 393 kts | 19° |
| 2026-04-29 17:30 | 17.96486 | 73.00163 | 21750 ft | 390 kts | 19° |
| 2026-04-29 17:30 | 17.99044 | 73.01153 | 21499 ft | 389 kts | 19° |
| 2026-04-29 17:30 | 18.01540 | 73.02119 | 21252 ft | 388 kts | 19° |
| 2026-04-29 17:30 | 18.04068 | 73.03099 | 21002 ft | 387 kts | 19° |
| 2026-04-29 17:31 | 18.06634 | 73.04093 | 20747 ft | 386 kts | 19° |
| 2026-04-29 17:31 | 18.09112 | 73.05053 | 20500 ft | 385 kts | 19° |
| 2026-04-29 17:31 | 18.11625 | 73.06027 | 20250 ft | 384 kts | 19° |
| 2026-04-29 17:31 | 18.14140 | 73.07002 | 19998 ft | 383 kts | 19° |
| 2026-04-29 17:32 | 18.16630 | 73.07968 | 19749 ft | 382 kts | 19° |
| 2026-04-29 17:32 | 18.19126 | 73.08935 | 19498 ft | 381 kts | 19° |
| 2026-04-29 17:32 | 18.21596 | 73.09889 | 19249 ft | 381 kts | 19° |
| 2026-04-29 17:32 | 18.24104 | 73.10859 | 18996 ft | 380 kts | 19° |
| 2026-04-29 17:33 | 18.26577 | 73.11817 | 18746 ft | 379 kts | 19° |
| 2026-04-29 17:33 | 18.29034 | 73.12769 | 18497 ft | 378 kts | 19° |
| 2026-04-29 17:33 | 18.31508 | 73.13729 | 18245 ft | 377 kts | 19° |
| 2026-04-29 17:33 | 18.33963 | 73.14681 | 17994 ft | 375 kts | 19° |
| 2026-04-29 17:34 | 18.36418 | 73.15635 | 17744 ft | 374 kts | 19° |
| 2026-04-29 17:34 | 18.38849 | 73.16579 | 17493 ft | 373 kts | 19° |
| 2026-04-29 17:34 | 18.41288 | 73.17526 | 17242 ft | 372 kts | 19° |
| 2026-04-29 17:34 | 18.43711 | 73.18469 | 16991 ft | 371 kts | 19° |
| 2026-04-29 17:35 | 18.47711 | 73.20024 | 16576 ft | 369 kts | 19° |
| 2026-04-29 17:35 | 18.50934 | 73.21278 | 16240 ft | 368 kts | 19° |
| 2026-04-29 17:35 | 18.53309 | 73.22202 | 15921 ft | 366 kts | 19° |
| 2026-04-29 17:36 | 18.55704 | 73.23134 | 15422 ft | 364 kts | 19° |
| 2026-04-29 17:36 | 18.58052 | 73.24049 | 14916 ft | 362 kts | 19° |
| 2026-04-29 17:36 | 18.60394 | 73.24961 | 14405 ft | 360 kts | 19° |
| 2026-04-29 17:36 | 18.62744 | 73.25877 | 13887 ft | 358 kts | 19° |
| 2026-04-29 17:37 | 18.65091 | 73.26788 | 13365 ft | 357 kts | 19° |
| 2026-04-29 17:37 | 18.67409 | 73.27689 | 12845 ft | 356 kts | 19° |
| 2026-04-29 17:37 | 18.69715 | 73.28588 | 12294 ft | 355 kts | 19° |
| 2026-04-29 17:37 | 18.72060 | 73.29503 | 11698 ft | 356 kts | 19° |
| 2026-04-29 17:38 | 18.74376 | 73.30408 | 11143 ft | 355 kts | 19° |
| 2026-04-29 17:38 | 18.76694 | 73.31313 | 10724 ft | 351 kts | 19° |
| 2026-04-29 17:38 | 18.78968 | 73.32202 | 10473 ft | 346 kts | 19° |
| 2026-04-29 17:38 | 18.81204 | 73.33076 | 10222 ft | 342 kts | 19° |
| 2026-04-29 17:39 | 18.83386 | 73.33929 | 10038 ft | 334 kts | 19° |
| 2026-04-29 17:39 | 18.85544 | 73.34773 | 9994 ft | 321 kts | 19° |
| 2026-04-29 17:39 | 18.87569 | 73.35565 | 9984 ft | 305 kts | 19° |
| 2026-04-29 17:39 | 18.89562 | 73.36344 | 9985 ft | 293 kts | 18° |
| 2026-04-29 17:40 | 18.91421 | 73.37071 | 9991 ft | 284 kts | 18° |
| 2026-04-29 17:40 | 18.93244 | 73.37785 | 9992 ft | 275 kts | 18° |
| 2026-04-29 17:40 | 18.95010 | 73.38452 | 9991 ft | 265 kts | 16° |
| 2026-04-29 17:40 | 18.96743 | 73.39032 | 9994 ft | 258 kts | 15° |
| 2026-04-29 17:41 | 18.98455 | 73.39586 | 10000 ft | 256 kts | 15° |
| 2026-04-29 17:41 | 19.00152 | 73.40142 | 10007 ft | 257 kts | 15° |
| 2026-04-29 17:41 | 19.01879 | 73.40714 | 10013 ft | 260 kts | 15° |
| 2026-04-29 17:41 | 19.03609 | 73.41291 | 10012 ft | 260 kts | 15° |
| 2026-04-29 17:42 | 19.05345 | 73.41872 | 9825 ft | 265 kts | 15° |
| 2026-04-29 17:42 | 19.07117 | 73.42466 | 9426 ft | 269 kts | 15° |
| 2026-04-29 17:42 | 19.08890 | 73.43062 | 9031 ft | 270 kts | 15° |
| 2026-04-29 17:42 | 19.10679 | 73.43664 | 8864 ft | 262 kts | 15° |
| 2026-04-29 17:43 | 19.12369 | 73.44233 | 8722 ft | 254 kts | 15° |
| 2026-04-29 17:43 | 19.14040 | 73.44795 | 8459 ft | 251 kts | 15° |
| 2026-04-29 17:43 | 19.15721 | 73.45361 | 8168 ft | 249 kts | 15° |
| 2026-04-29 17:43 | 19.17344 | 73.45908 | 7876 ft | 247 kts | 15° |
| 2026-04-29 17:44 | 19.18991 | 73.46404 | 7575 ft | 244 kts | 6° |
| 2026-04-29 17:44 | 19.20607 | 73.46164 | 7221 ft | 236 kts | 331° |
| 2026-04-29 17:44 | 19.21728 | 73.44974 | 6917 ft | 228 kts | 295° |
| 2026-04-29 17:44 | 19.21922 | 73.43332 | 6519 ft | 231 kts | 261° |
| 2026-04-29 17:45 | 19.21333 | 73.41730 | 6122 ft | 234 kts | 245° |
| 2026-04-29 17:45 | 19.20542 | 73.40218 | 5634 ft | 238 kts | 243° |
| 2026-04-29 17:45 | 19.19690 | 73.38718 | 5139 ft | 242 kts | 241° |
| 2026-04-29 17:45 | 19.18878 | 73.37169 | 4806 ft | 237 kts | 245° |
| 2026-04-29 17:46 | 19.18209 | 73.35632 | 4653 ft | 225 kts | 249° |
| 2026-04-29 17:46 | 19.17645 | 73.34116 | 4395 ft | 222 kts | 251° |
| 2026-04-29 17:46 | 19.17122 | 73.32564 | 4096 ft | 224 kts | 252° |
| 2026-04-29 17:46 | 19.16621 | 73.31017 | 3796 ft | 222 kts | 252° |
| 2026-04-29 17:47 | 19.16132 | 73.29479 | 3492 ft | 217 kts | 252° |
| 2026-04-29 17:47 | 19.15665 | 73.27991 | 3192 ft | 214 kts | 253° |
| 2026-04-29 17:47 | 19.15198 | 73.26495 | 2887 ft | 210 kts | 253° |
| 2026-04-29 17:47 | 19.14750 | 73.25052 | 2722 ft | 201 kts | 253° |
| 2026-04-29 17:48 | 19.14324 | 73.23673 | 2731 ft | 192 kts | 253° |
| 2026-04-29 17:48 | 19.13914 | 73.22344 | 2923 ft | 190 kts | 253° |
| 2026-04-29 17:48 | 19.13500 | 73.21002 | 2935 ft | 194 kts | 253° |
| 2026-04-29 17:48 | 19.13083 | 73.19644 | 2953 ft | 194 kts | 253° |
| 2026-04-29 17:49 | 19.12671 | 73.18307 | 2954 ft | 192 kts | 253° |
| 2026-04-29 17:49 | 19.12270 | 73.17001 | 2938 ft | 182 kts | 253° |